Time,TemperatureF,DewpointF,PressureIn,WindDirection,WindDirectionDegrees,WindSpeedMPH,WindSpeedGustMPH,Humidity,HourlyPrecipIn,Conditions,Clouds,dailyrainin,SoftwareType,DateUTC
2013-01-24 00:02:00,22.0,19.0,-100.00,SSE,150,11.0,13.0,90,0.00,,,-99.99,,2013-01-24 07:02:00,
2013-01-24 00:11:00,22.0,19.0,-100.00,SSE,147,11.0,13.0,89,0.00,,,-99.99,,2013-01-24 07:11:00,
2013-01-24 00:22:00,22.0,19.0,-100.00,SSE,147,7.0,9.0,89,0.00,,,-99.99,,2013-01-24 07:22:00,
2013-01-24 00:32:00,22.0,19.0,-100.00,SSE,155,9.0,10.0,89,0.00,,,-99.99,,2013-01-24 07:32:00,
2013-01-24 00:42:00,21.0,19.0,-100.00,SSE,147,11.0,12.0,90,0.00,,,-99.99,,2013-01-24 07:42:00,
2013-01-24 00:52:00,20.0,18.0,-100.00,SE,144,11.0,13.0,92,0.00,,,-99.99,,2013-01-24 07:52:00,
2013-01-24 01:01:00,20.0,18.0,-100.00,SE,145,9.0,12.0,91,0.00,,,-99.99,,2013-01-24 08:01:00,
2013-01-24 01:11:00,21.0,18.0,-100.00,SSE,147,9.0,13.0,90,0.00,,,-99.99,,2013-01-24 08:11:00,
2013-01-24 01:22:00,20.0,18.0,-100.00,SSE,151,11.0,14.0,91,0.00,,,-99.99,,2013-01-24 08:22:00,
2013-01-24 01:32:00,21.0,18.0,-100.00,South,175,7.0,12.0,90,0.00,,,-99.99,,2013-01-24 08:32:00,
2013-01-24 01:42:00,21.0,18.0,-100.00,SSE,161,6.0,9.0,90,0.00,,,-99.99,,2013-01-24 08:42:00,
2013-01-24 01:52:00,22.0,19.0,-100.00,SSE,155,9.0,14.0,88,0.00,,,-99.99,,2013-01-24 08:52:00,
2013-01-24 02:02:00,22.0,19.0,-100.00,SSE,168,9.0,12.0,87,0.00,,,-99.99,,2013-01-24 09:02:00,
2013-01-24 02:12:00,22.0,18.0,-100.00,SSE,168,7.0,12.0,86,0.00,,,-99.99,,2013-01-24 09:12:00,
2013-01-24 02:22:00,23.0,19.0,-100.00,SSE,162,10.0,15.0,84,0.00,,,-99.99,,2013-01-24 09:22:00,
2013-01-24 02:32:00,22.0,19.0,-100.00,SSE,162,11.0,16.0,86,0.00,,,-99.99,,2013-01-24 09:32:00,
2013-01-24 02:42:00,23.0,19.0,-100.00,SSE,151,12.0,19.0,82,0.00,,,-99.99,,2013-01-24 09:42:00,
2013-01-24 02:52:00,23.0,19.0,-100.00,SSE,151,7.0,15.0,83,0.00,,,-99.99,,2013-01-24 09:52:00,
2013-01-24 03:02:00,23.0,19.0,-100.00,SSE,168,4.0,9.0,83,0.00,,,-99.99,,2013-01-24 10:02:00,
2013-01-24 03:11:00,23.0,19.0,-100.00,SSE,168,4.0,9.0,83,0.00,,,-99.99,,2013-01-24 10:11:00,
2013-01-24 03:22:00,26.0,19.0,-100.00,South,186,3.0,9.0,74,0.00,,,-99.99,,2013-01-24 10:22:00,
2013-01-24 03:32:00,28.0,18.0,-100.00,SSW,200,4.0,9.0,67,0.00,,,-99.99,,2013-01-24 10:32:00,
2013-01-24 03:42:00,48.0,13.0,-100.00,SW,220,6.0,17.0,23,0.00,,,-99.99,,2013-01-24 10:42:00,
2013-01-24 03:53:00,-999.0,-99.9,-100.00,SW,232,7.0,16.0,-999,-99.99,,,-99.99,,2013-01-24 10:53:00,
2013-01-24 04:02:00,49.0,9.0,-100.00,SSW,193,4.0,7.0,19,0.00,,,-99.99,,2013-01-24 11:02:00,
2013-01-24 04:11:00,47.0,9.0,-100.00,South,184,3.0,6.0,21,0.00,,,-99.99,,2013-01-24 11:11:00,
2013-01-24 04:22:00,49.0,9.0,-100.00,West,260,2.0,6.0,20,0.00,,,-99.99,,2013-01-24 11:22:00,
2013-01-24 04:32:00,42.0,16.0,-100.00,North,352,2.0,7.0,33,0.00,,,-99.99,,2013-01-24 11:32:00,
2013-01-24 04:42:00,41.0,11.0,-100.00,SSE,150,6.0,9.0,31,0.00,,,-99.99,,2013-01-24 11:42:00,
2013-01-24 04:52:00,50.0,12.0,-100.00,SW,230,6.0,11.0,21,0.00,,,-99.99,,2013-01-24 11:52:00,
2013-01-24 05:02:00,54.0,12.0,-100.00,SW,233,15.0,22.0,18,0.00,,,-99.99,,2013-01-24 12:02:00,
2013-01-24 05:11:00,54.0,12.0,-100.00,SW,236,16.0,21.0,18,0.00,,,-99.99,,2013-01-24 12:11:00,
2013-01-24 05:22:00,38.0,16.0,-100.00,SSW,210,7.0,12.0,41,0.00,,,-99.99,,2013-01-24 12:22:00,
2013-01-24 05:32:00,54.0,11.0,-100.00,SW,227,14.0,20.0,18,0.00,,,-99.99,,2013-01-24 12:32:00,
2013-01-24 05:42:00,55.0,11.0,-100.00,WSW,237,16.0,22.0,17,0.00,,,-99.99,,2013-01-24 12:42:00,
2013-01-24 05:52:00,53.0,10.0,-100.00,West,268,12.0,18.0,17,0.00,,,-99.99,,2013-01-24 12:52:00,
2013-01-24 06:02:00,52.0,11.0,-100.00,West,277,11.0,17.0,19,0.00,,,-99.99,,2013-01-24 13:02:00,
2013-01-24 06:12:00,51.0,12.0,-100.00,West,275,9.0,13.0,20,0.00,,,-99.99,,2013-01-24 13:12:00,
2013-01-24 06:22:00,50.0,13.0,-100.00,WNW,282,7.0,11.0,22,0.00,,,-99.99,,2013-01-24 13:22:00,
2013-01-24 06:32:00,47.0,13.0,-100.00,NW,320,6.0,12.0,24,0.00,,,-99.99,,2013-01-24 13:32:00,
2013-01-24 06:42:00,46.0,13.0,-100.00,NNW,340,4.0,7.0,26,0.00,,,-99.99,,2013-01-24 13:42:00,
2013-01-24 06:52:00,46.0,13.0,-100.00,North,1,2.0,5.0,26,0.00,,,-99.99,,2013-01-24 13:52:00,
2013-01-24 07:02:00,48.0,12.0,-100.00,NW,308,5.0,9.0,23,0.00,,,-99.99,,2013-01-24 14:02:00,
2013-01-24 07:11:00,49.0,12.0,-100.00,NW,304,7.0,11.0,22,0.00,,,-99.99,,2013-01-24 14:11:00,
2013-01-24 07:22:00,49.0,12.0,-100.00,NW,309,9.0,14.0,22,0.00,,,-99.99,,2013-01-24 14:22:00,
2013-01-24 07:32:00,50.0,11.0,-100.00,WNW,292,9.0,11.0,21,-99.99,,,-99.99,,2013-01-24 14:32:00,
2013-01-24 07:42:00,49.0,11.0,-100.00,WNW,296,9.0,11.0,21,0.00,,,-99.99,,2013-01-24 14:42:00,
2013-01-24 07:53:00,49.0,11.0,-100.00,WNW,287,10.0,13.0,22,0.00,,,-99.99,,2013-01-24 14:53:00,
2013-01-24 08:02:00,49.0,11.0,-100.00,West,275,11.0,19.0,22,0.00,,,-99.99,,2013-01-24 15:02:00,
2013-01-24 08:12:00,49.0,13.0,-100.00,West,278,13.0,19.0,23,0.00,,,-99.99,,2013-01-24 15:12:00,
2013-01-24 08:22:00,51.0,12.0,-100.00,West,263,14.0,21.0,21,0.00,,,-99.99,,2013-01-24 15:22:00,
2013-01-24 08:32:00,51.0,12.0,-100.00,West,263,14.0,21.0,21,0.00,,,-99.99,,2013-01-24 15:32:00,
2013-01-24 08:42:00,49.0,13.0,-100.00,West,275,16.0,22.0,24,0.00,,,-99.99,,2013-01-24 15:42:00,
2013-01-24 08:52:00,49.0,14.0,-100.00,West,278,17.0,24.0,24,0.00,,,-99.99,,2013-01-24 15:52:00,
2013-01-24 09:02:00,49.0,14.0,-100.00,West,277,17.0,24.0,24,0.00,,,-99.99,,2013-01-24 16:02:00,
2013-01-24 09:11:00,51.0,14.0,-100.00,WNW,287,16.0,24.0,23,0.00,,,-99.99,,2013-01-24 16:11:00,
2013-01-24 09:22:00,53.0,14.0,-100.00,WNW,287,13.0,24.0,21,0.00,,,-99.99,,2013-01-24 16:22:00,
2013-01-24 09:32:00,51.0,14.0,-100.00,WNW,294,13.0,20.0,23,0.00,,,-99.99,,2013-01-24 16:32:00,
2013-01-24 10:01:00,51.0,16.0,-100.00,NW,305,13.0,18.0,24,0.00,,,-99.99,,2013-01-24 17:01:00,
2013-01-24 10:11:00,53.0,16.0,-100.00,NW,309,13.0,19.0,23,0.00,,,-99.99,,2013-01-24 17:11:00,
2013-01-24 10:21:00,53.0,17.0,-100.00,NW,315,12.0,17.0,24,0.00,,,-99.99,,2013-01-24 17:21:00,
2013-01-24 10:31:00,53.0,18.0,-100.00,NW,318,12.0,19.0,25,0.00,,,-99.99,,2013-01-24 17:31:00,
2013-01-24 10:42:00,48.0,19.0,-100.00,NNW,340,10.0,18.0,31,0.00,,,-99.99,,2013-01-24 17:42:00,
2013-01-24 10:51:00,46.0,21.0,-100.00,NNE,25,7.0,12.0,37,0.00,,,-99.99,,2013-01-24 17:51:00,
2013-01-24 11:01:00,45.0,20.0,-100.00,NNE,25,11.0,17.0,37,0.00,,,-99.99,,2013-01-24 18:01:00,
2013-01-24 11:11:00,47.0,22.0,-100.00,NNE,21,11.0,17.0,38,0.00,,,-99.99,,2013-01-24 18:11:00,
2013-01-24 11:21:00,49.0,21.0,-100.00,North,359,8.0,12.0,33,0.00,,,-99.99,,2013-01-24 18:21:00,
2013-01-24 11:31:00,50.0,21.0,-100.00,North,349,8.0,12.0,31,0.00,,,-99.99,,2013-01-24 18:31:00,
2013-01-24 11:41:00,48.0,21.0,-100.00,North,6,9.0,14.0,35,0.00,,,-99.99,,2013-01-24 18:41:00,
2013-01-24 11:52:00,48.0,20.0,-100.00,North,1,10.0,16.0,33,0.00,,,-99.99,,2013-01-24 18:52:00,
2013-01-24 12:01:00,47.0,21.0,-100.00,NNE,18,12.0,21.0,34,0.00,,,-99.99,,2013-01-24 19:01:00,
2013-01-24 12:11:00,47.0,21.0,-100.00,NNE,18,9.0,14.0,35,0.00,,,-99.99,,2013-01-24 19:11:00,
2013-01-24 12:21:00,45.0,23.0,-100.00,NE,41,9.0,14.0,42,0.00,,,-99.99,,2013-01-24 19:21:00,
2013-01-24 12:32:00,44.0,22.0,-100.00,NE,40,10.0,14.0,42,0.00,,,-99.99,,2013-01-24 19:32:00,
2013-01-24 12:41:00,44.0,24.0,-100.00,NNE,30,11.0,14.0,44,0.00,,,-99.99,,2013-01-24 19:41:00,
2013-01-24 12:51:00,45.0,24.0,-100.00,North,11,10.0,14.0,42,0.00,,,-99.99,,2013-01-24 19:51:00,
2013-01-24 13:01:00,45.0,23.0,-100.00,North,0,7.0,13.0,42,0.00,,,-99.99,,2013-01-24 20:01:00,
2013-01-24 13:11:00,44.0,23.0,-100.00,North,354,4.0,11.0,42,0.00,,,-99.99,,2013-01-24 20:11:00,
2013-01-24 13:21:00,44.0,23.0,-100.00,North,4,7.0,12.0,44,0.00,,,-99.99,,2013-01-24 20:21:00,
2013-01-24 13:31:00,43.0,24.0,-100.00,North,359,9.0,16.0,47,0.00,,,-99.99,,2013-01-24 20:31:00,
2013-01-24 13:42:00,43.0,25.0,-100.00,NNW,332,4.0,9.0,48,0.00,,,-99.99,,2013-01-24 20:42:00,
2013-01-24 13:52:00,43.0,24.0,-100.00,North,354,6.0,10.0,47,0.00,,,-99.99,,2013-01-24 20:52:00,
2013-01-24 14:01:00,43.0,25.0,-100.00,NNW,346,3.0,11.0,49,0.00,,,-99.99,,2013-01-24 21:01:00,
2013-01-24 14:11:00,45.0,23.0,-100.00,NNW,329,7.0,21.0,41,0.00,,,-99.99,,2013-01-24 21:11:00,
2013-01-24 14:21:00,45.0,24.0,-100.00,NW,316,17.0,22.0,43,0.00,,,-99.99,,2013-01-24 21:21:00,
2013-01-24 14:32:00,44.0,24.0,-100.00,NNW,332,10.0,15.0,46,0.00,,,-99.99,,2013-01-24 21:32:00,
2013-01-24 14:42:00,44.0,26.0,-100.00,NNW,329,10.0,15.0,49,0.00,,,-99.99,,2013-01-24 21:42:00,
2013-01-24 14:52:00,45.0,24.0,-100.00,NW,322,13.0,25.0,42,0.00,,,-99.99,,2013-01-24 21:52:00,
2013-01-24 15:01:00,45.0,24.0,-100.00,NW,311,17.0,22.0,43,0.00,,,-99.99,,2013-01-24 22:01:00,
2013-01-24 15:11:00,46.0,24.0,-100.00,NW,304,14.0,19.0,42,0.00,,,-99.99,,2013-01-24 22:11:00,
2013-01-24 15:21:00,46.0,26.0,-100.00,WNW,287,12.0,18.0,44,0.00,,,-99.99,,2013-01-24 22:21:00,
2013-01-24 15:31:00,45.0,26.0,-100.00,WSW,239,6.0,11.0,47,0.00,,,-99.99,,2013-01-24 22:31:00,
2013-01-24 15:41:00,45.0,26.0,-100.00,WSW,256,6.0,10.0,46,0.00,,,-99.99,,2013-01-24 22:41:00,
2013-01-24 15:52:00,45.0,26.0,-100.00,WNW,302,10.0,15.0,47,0.00,,,-99.99,,2013-01-24 22:52:00,
2013-01-24 16:01:00,45.0,26.0,-100.00,NW,319,11.0,15.0,47,0.00,,,-99.99,,2013-01-24 23:01:00,
2013-01-24 16:11:00,45.0,25.0,-100.00,NW,312,13.0,20.0,45,0.00,,,-99.99,,2013-01-24 23:11:00,
2013-01-24 16:21:00,45.0,26.0,-100.00,NW,309,12.0,16.0,47,0.00,,,-99.99,,2013-01-24 23:21:00,
2013-01-24 16:31:00,45.0,26.0,-100.00,WNW,299,12.0,17.0,48,0.00,,,-99.99,,2013-01-24 23:31:00,
2013-01-24 16:42:00,44.0,26.0,-100.00,WNW,295,13.0,19.0,49,0.00,,,-99.99,,2013-01-24 23:42:00,
2013-01-24 16:52:00,44.0,26.0,-100.00,NW,304,16.0,21.0,49,0.00,,,-99.99,,2013-01-24 23:52:00,
2013-01-24 17:01:00,43.0,26.0,-100.00,WNW,294,14.0,19.0,50,0.00,,,-99.99,,2013-01-25 00:01:00,
2013-01-24 17:11:00,42.0,26.0,-100.00,WNW,289,14.0,17.0,53,0.00,,,-99.99,,2013-01-25 00:11:00,
2013-01-24 17:21:00,40.0,26.0,-100.00,WNW,285,11.0,12.0,57,0.00,,,-99.99,,2013-01-25 00:21:00,
2013-01-24 17:31:00,39.0,26.0,-100.00,WNW,284,10.0,12.0,60,0.00,,,-99.99,,2013-01-25 00:31:00,
2013-01-24 17:41:00,38.0,26.0,-100.00,WNW,288,10.0,12.0,61,0.00,,,-99.99,,2013-01-25 00:41:00,
2013-01-24 17:51:00,40.0,26.0,-100.00,WNW,296,9.0,11.0,57,0.00,,,-99.99,,2013-01-25 00:51:00,
2013-01-24 18:01:00,40.0,26.0,-100.00,WNW,296,10.0,12.0,58,0.00,,,-99.99,,2013-01-25 01:01:00,
2013-01-24 18:11:00,39.0,26.0,-100.00,WNW,295,10.0,12.0,59,0.00,,,-99.99,,2013-01-25 01:11:00,
2013-01-24 18:21:00,38.0,26.0,-100.00,WNW,288,8.0,11.0,61,0.00,,,-99.99,,2013-01-25 01:21:00,
2013-01-24 18:31:00,38.0,25.0,-100.00,WNW,296,8.0,11.0,58,0.00,,,-99.99,,2013-01-25 01:31:00,
2013-01-24 18:41:00,38.0,25.0,-100.00,WNW,295,8.0,10.0,58,0.00,,,-99.99,,2013-01-25 01:41:00,
2013-01-24 18:51:00,38.0,25.0,-100.00,West,275,9.0,9.0,60,0.00,,,-99.99,,2013-01-25 01:51:00,
2013-01-24 19:01:00,36.0,25.0,-100.00,West,270,9.0,10.0,64,0.00,,,-99.99,,2013-01-25 02:01:00,
2013-01-24 19:11:00,36.0,25.0,-100.00,West,263,9.0,11.0,66,0.00,,,-99.99,,2013-01-25 02:11:00,
2013-01-24 19:21:00,35.0,25.0,-100.00,WSW,256,11.0,12.0,66,0.00,,,-99.99,,2013-01-25 02:21:00,
2013-01-24 19:31:00,35.0,25.0,-100.00,WSW,248,11.0,12.0,65,0.00,,,-99.99,,2013-01-25 02:31:00,
2013-01-24 19:41:00,35.0,25.0,-100.00,WSW,239,10.0,11.0,66,0.00,,,-99.99,,2013-01-25 02:41:00,
2013-01-24 19:52:00,33.0,25.0,-100.00,WSW,250,7.0,10.0,70,0.00,,,-99.99,,2013-01-25 02:52:00,
2013-01-24 20:01:00,34.0,25.0,-100.00,NW,311,2.0,4.0,68,0.00,,,-99.99,,2013-01-25 03:01:00,
2013-01-24 20:11:00,34.0,24.0,-100.00,West,265,2.0,4.0,67,0.00,,,-99.99,,2013-01-25 03:11:00,
2013-01-24 20:21:00,33.0,24.0,-100.00,WSW,243,4.0,6.0,69,0.00,,,-99.99,,2013-01-25 03:21:00,
2013-01-24 20:32:00,33.0,24.0,-100.00,West,265,3.0,4.0,70,0.00,,,-99.99,,2013-01-25 03:32:00,
2013-01-24 20:41:00,33.0,24.0,-100.00,West,260,4.0,4.0,69,0.00,,,-99.99,,2013-01-25 03:41:00,
2013-01-24 20:52:00,31.0,24.0,-100.00,NE,41,2.0,6.0,77,0.00,,,-99.99,,2013-01-25 03:52:00,
2013-01-24 21:01:00,34.0,25.0,-100.00,ESE,114,3.0,6.0,69,0.00,,,-99.99,,2013-01-25 04:01:00,
2013-01-24 21:11:00,34.0,25.0,-100.00,SE,145,4.0,6.0,69,0.00,,,-99.99,,2013-01-25 04:11:00,
2013-01-24 21:22:00,34.0,25.0,-100.00,SE,145,6.0,7.0,69,0.00,,,-99.99,,2013-01-25 04:22:00,
2013-01-24 21:31:00,32.0,24.0,-100.00,SSE,155,7.0,8.0,72,0.00,,,-99.99,,2013-01-25 04:31:00,
2013-01-24 21:41:00,33.0,24.0,-100.00,SSE,165,6.0,8.0,70,0.00,,,-99.99,,2013-01-25 04:41:00,
2013-01-24 21:51:00,34.0,24.0,-100.00,SSE,151,7.0,9.0,67,0.00,,,-99.99,,2013-01-25 04:51:00,
2013-01-24 22:02:00,32.0,24.0,-100.00,SSE,157,7.0,10.0,71,0.00,,,-99.99,,2013-01-25 05:02:00,
2013-01-24 22:11:00,32.0,24.0,-100.00,South,169,6.0,9.0,73,0.00,,,-99.99,,2013-01-25 05:11:00,
2013-01-24 22:22:00,31.0,24.0,-100.00,SSE,167,7.0,9.0,75,0.00,,,-99.99,,2013-01-25 05:22:00,
2013-01-24 22:31:00,30.0,24.0,-100.00,SSE,161,8.0,9.0,77,0.00,,,-99.99,,2013-01-25 05:31:00,
2013-01-24 22:42:00,32.0,24.0,-100.00,SSE,154,7.0,9.0,75,0.00,,,-99.99,,2013-01-25 05:42:00,
2013-01-24 22:51:00,31.0,24.0,-100.00,SSE,148,7.0,9.0,75,0.00,,,-99.99,,2013-01-25 05:51:00,
2013-01-24 23:01:00,30.0,24.0,-100.00,SSE,152,8.0,9.0,78,0.00,,,-99.99,,2013-01-25 06:01:00,
2013-01-24 23:11:00,30.0,24.0,-100.00,SSE,152,7.0,9.0,77,0.00,,,-99.99,,2013-01-25 06:11:00,
2013-01-24 23:21:00,29.0,24.0,-100.00,SSE,160,1.0,6.0,82,0.00,,,-99.99,,2013-01-25 06:21:00,
2013-01-24 23:31:00,30.0,24.0,-100.00,SSE,154,1.0,3.0,78,0.00,,,-99.99,,2013-01-25 06:31:00,
2013-01-24 23:41:00,30.0,24.0,-100.00,SE,143,2.0,4.0,77,0.00,,,-99.99,,2013-01-25 06:41:00,
2013-01-24 23:51:00,30.0,24.0,-100.00,SSE,151,5.0,9.0,78,0.00,,,-99.99,,2013-01-25 06:51:00,